sensor_id;sensor_type;location;lat;lon;timestamp;P1;durP1;ratioP1;P2;durP2;ratioP2
55455;SDS011;63021;52.836;6.376;2023-01-01T00:00:39;34.83;;;24.02;;
55455;SDS011;63021;52.836;6.376;2023-01-01T00:03:04;40.65;;;24.95;;
55455;SDS011;63021;52.836;6.376;2023-01-01T00:05:30;42.03;;;24.48;;
55455;SDS011;63021;52.836;6.376;2023-01-01T00:07:55;37.80;;;22.90;;
55455;SDS011;63021;52.836;6.376;2023-01-01T00:10:21;40.13;;;21.45;;
55455;SDS011;63021;52.836;6.376;2023-01-01T00:12:52;31.15;;;20.45;;
55455;SDS011;63021;52.836;6.376;2023-01-01T00:15:17;36.42;;;20.83;;
55455;SDS011;63021;52.836;6.376;2023-01-01T00:17:43;37.53;;;21.00;;
55455;SDS011;63021;52.836;6.376;2023-01-01T00:20:08;32.67;;;21.40;;
55455;SDS011;63021;52.836;6.376;2023-01-01T00:22:34;37.42;;;23.95;;
55455;SDS011;63021;52.836;6.376;2023-01-01T00:24:59;51.10;;;27.10;;
55455;SDS011;63021;52.836;6.376;2023-01-01T00:27:25;43.65;;;25.90;;
55455;SDS011;63021;52.836;6.376;2023-01-01T00:29:50;39.17;;;25.58;;
55455;SDS011;63021;52.836;6.376;2023-01-01T00:32:15;40.53;;;26.67;;
55455;SDS011;63021;52.836;6.376;2023-01-01T00:34:41;44.67;;;27.10;;
55455;SDS011;63021;52.836;6.376;2023-01-01T00:37:06;38.00;;;26.42;;
55455;SDS011;63021;52.836;6.376;2023-01-01T00:39:32;43.70;;;25.58;;
55455;SDS011;63021;52.836;6.376;2023-01-01T00:41:57;40.85;;;28.65;;
55455;SDS011;63021;52.836;6.376;2023-01-01T00:44:22;39.47;;;26.73;;
55455;SDS011;63021;52.836;6.376;2023-01-01T00:46:48;43.70;;;29.17;;
55455;SDS011;63021;52.836;6.376;2023-01-01T00:49:13;43.28;;;29.15;;
55455;SDS011;63021;52.836;6.376;2023-01-01T00:51:39;45.33;;;30.48;;
55455;SDS011;63021;52.836;6.376;2023-01-01T00:54:04;44.75;;;28.38;;
55455;SDS011;63021;52.836;6.376;2023-01-01T00:56:30;46.88;;;28.42;;
55455;SDS011;63021;52.836;6.376;2023-01-01T00:58:55;48.85;;;28.80;;
55455;SDS011;63021;52.836;6.376;2023-01-01T01:01:21;44.00;;;29.85;;
55455;SDS011;63021;52.836;6.376;2023-01-01T01:03:46;39.95;;;28.40;;
55455;SDS011;63021;52.836;6.376;2023-01-01T01:06:13;48.13;;;28.10;;
55455;SDS011;63021;52.836;6.376;2023-01-01T01:08:42;48.80;;;27.88;;
55455;SDS011;63021;52.836;6.376;2023-01-01T01:11:10;45.20;;;29.45;;
55455;SDS011;63021;52.836;6.376;2023-01-01T01:13:41;38.47;;;27.27;;
55455;SDS011;63021;52.836;6.376;2023-01-01T01:16:09;42.40;;;28.10;;
55455;SDS011;63021;52.836;6.376;2023-01-01T01:18:42;47.00;;;29.13;;
55455;SDS011;63021;52.836;6.376;2023-01-01T01:21:08;35.17;;;25.42;;
55455;SDS011;63021;52.836;6.376;2023-01-01T01:23:34;43.05;;;27.27;;
55455;SDS011;63021;52.836;6.376;2023-01-01T01:26:07;44.30;;;26.83;;
55455;SDS011;63021;52.836;6.376;2023-01-01T01:28:35;38.28;;;26.15;;
55455;SDS011;63021;52.836;6.376;2023-01-01T01:31:01;35.78;;;24.95;;
55455;SDS011;63021;52.836;6.376;2023-01-01T01:33:26;37.42;;;26.38;;
55455;SDS011;63021;52.836;6.376;2023-01-01T01:35:52;44.50;;;26.13;;
55455;SDS011;63021;52.836;6.376;2023-01-01T01:38:17;38.15;;;25.38;;
55455;SDS011;63021;52.836;6.376;2023-01-01T01:40:43;49.25;;;26.15;;
55455;SDS011;63021;52.836;6.376;2023-01-01T01:43:18;36.10;;;24.27;;
55455;SDS011;63021;52.836;6.376;2023-01-01T01:45:46;38.95;;;24.23;;
55455;SDS011;63021;52.836;6.376;2023-01-01T01:48:12;34.70;;;23.73;;
55455;SDS011;63021;52.836;6.376;2023-01-01T01:50:38;34.67;;;22.88;;
55455;SDS011;63021;52.836;6.376;2023-01-01T01:55:42;36.75;;;21.38;;
55455;SDS011;63021;52.836;6.376;2023-01-01T01:58:12;31.88;;;21.15;;
55455;SDS011;63021;52.836;6.376;2023-01-01T02:00:39;34.55;;;20.77;;
55455;SDS011;63021;52.836;6.376;2023-01-01T02:03:06;35.03;;;21.55;;
55455;SDS011;63021;52.836;6.376;2023-01-01T02:05:33;36.90;;;19.25;;
55455;SDS011;63021;52.836;6.376;2023-01-01T02:07:59;30.73;;;19.90;;
55455;SDS011;63021;52.836;6.376;2023-01-01T02:10:27;33.92;;;19.45;;
55455;SDS011;63021;52.836;6.376;2023-01-01T02:12:53;27.80;;;17.75;;
55455;SDS011;63021;52.836;6.376;2023-01-01T02:15:20;32.20;;;15.68;;
55455;SDS011;63021;52.836;6.376;2023-01-01T02:20:38;23.23;;;14.40;;
55455;SDS011;63021;52.836;6.376;2023-01-01T02:23:22;23.30;;;13.52;;
55455;SDS011;63021;52.836;6.376;2023-01-01T02:32:11;25.17;;;12.20;;
55455;SDS011;63021;52.836;6.376;2023-01-01T02:34:44;22.05;;;11.82;;
55455;SDS011;63021;52.836;6.376;2023-01-01T02:37:13;23.88;;;12.02;;
55455;SDS011;63021;52.836;6.376;2023-01-01T02:39:47;27.48;;;10.95;;
55455;SDS011;63021;52.836;6.376;2023-01-01T02:42:17;19.27;;;11.50;;
55455;SDS011;63021;52.836;6.376;2023-01-01T02:44:46;20.00;;;10.35;;
55455;SDS011;63021;52.836;6.376;2023-01-01T02:47:18;18.98;;;11.15;;
55455;SDS011;63021;52.836;6.376;2023-01-01T02:49:50;23.13;;;11.05;;
55455;SDS011;63021;52.836;6.376;2023-01-01T02:55:06;15.02;;;8.45;;
55455;SDS011;63021;52.836;6.376;2023-01-01T02:57:51;14.93;;;8.50;;
55455;SDS011;63021;52.836;6.376;2023-01-01T03:00:47;18.75;;;7.35;;
55455;SDS011;63021;52.836;6.376;2023-01-01T03:03:24;15.40;;;7.30;;
55455;SDS011;63021;52.836;6.376;2023-01-01T03:11:24;14.85;;;6.38;;
55455;SDS011;63021;52.836;6.376;2023-01-01T03:16:30;9.65;;;4.50;;
55455;SDS011;63021;52.836;6.376;2023-01-01T03:19:01;13.13;;;5.05;;
55455;SDS011;63021;52.836;6.376;2023-01-01T03:21:43;14.05;;;4.57;;
55455;SDS011;63021;52.836;6.376;2023-01-01T03:24:16;10.23;;;4.40;;
55455;SDS011;63021;52.836;6.376;2023-01-01T03:26:50;12.40;;;5.50;;
55455;SDS011;63021;52.836;6.376;2023-01-01T03:29:19;7.47;;;3.33;;
55455;SDS011;63021;52.836;6.376;2023-01-01T03:31:47;12.43;;;4.57;;
55455;SDS011;63021;52.836;6.376;2023-01-01T03:34:18;10.95;;;4.45;;
55455;SDS011;63021;52.836;6.376;2023-01-01T03:36:51;17.98;;;5.22;;
55455;SDS011;63021;52.836;6.376;2023-01-01T03:39:28;7.70;;;3.65;;
55455;SDS011;63021;52.836;6.376;2023-01-01T03:44:54;8.73;;;3.88;;
55455;SDS011;63021;52.836;6.376;2023-01-01T03:47:26;10.23;;;4.22;;
55455;SDS011;63021;52.836;6.376;2023-01-01T03:49:53;9.50;;;3.22;;
55455;SDS011;63021;52.836;6.376;2023-01-01T04:00:26;10.05;;;3.63;;
55455;SDS011;63021;52.836;6.376;2023-01-01T04:02:58;4.97;;;2.30;;
55455;SDS011;63021;52.836;6.376;2023-01-01T04:05:28;10.13;;;3.28;;
55455;SDS011;63021;52.836;6.376;2023-01-01T04:07:56;15.57;;;4.80;;
55455;SDS011;63021;52.836;6.376;2023-01-01T04:10:25;10.38;;;3.13;;
55455;SDS011;63021;52.836;6.376;2023-01-01T04:12:55;11.25;;;3.65;;
55455;SDS011;63021;52.836;6.376;2023-01-01T04:15:23;11.75;;;4.40;;
55455;SDS011;63021;52.836;6.376;2023-01-01T04:17:50;9.85;;;3.50;;
55455;SDS011;63021;52.836;6.376;2023-01-01T04:20:16;10.85;;;3.25;;
55455;SDS011;63021;52.836;6.376;2023-01-01T04:22:42;11.60;;;3.30;;
55455;SDS011;63021;52.836;6.376;2023-01-01T04:25:09;12.05;;;3.45;;
55455;SDS011;63021;52.836;6.376;2023-01-01T04:27:36;10.00;;;2.53;;
55455;SDS011;63021;52.836;6.376;2023-01-01T04:30:02;8.55;;;3.10;;
55455;SDS011;63021;52.836;6.376;2023-01-01T04:32:29;7.70;;;3.70;;
55455;SDS011;63021;52.836;6.376;2023-01-01T04:34:54;14.95;;;3.22;;
55455;SDS011;63021;52.836;6.376;2023-01-01T04:37:20;10.00;;;3.70;;
55455;SDS011;63021;52.836;6.376;2023-01-01T04:39:45;8.48;;;3.00;;
55455;SDS011;63021;52.836;6.376;2023-01-01T04:42:11;7.00;;;2.75;;
55455;SDS011;63021;52.836;6.376;2023-01-01T04:44:36;11.35;;;2.70;;
55455;SDS011;63021;52.836;6.376;2023-01-01T04:47:02;5.88;;;3.13;;
55455;SDS011;63021;52.836;6.376;2023-01-01T04:49:28;11.88;;;3.00;;
55455;SDS011;63021;52.836;6.376;2023-01-01T04:51:53;4.72;;;2.10;;
55455;SDS011;63021;52.836;6.376;2023-01-01T04:54:19;7.53;;;2.60;;
55455;SDS011;63021;52.836;6.376;2023-01-01T04:56:44;5.65;;;2.60;;
55455;SDS011;63021;52.836;6.376;2023-01-01T04:59:09;10.50;;;2.75;;
55455;SDS011;63021;52.836;6.376;2023-01-01T05:01:35;7.88;;;2.50;;
55455;SDS011;63021;52.836;6.376;2023-01-01T05:04:00;7.93;;;2.53;;
55455;SDS011;63021;52.836;6.376;2023-01-01T05:06:26;24.58;;;3.22;;
55455;SDS011;63021;52.836;6.376;2023-01-01T05:08:53;6.97;;;1.95;;
55455;SDS011;63021;52.836;6.376;2023-01-01T05:11:23;9.15;;;1.65;;
55455;SDS011;63021;52.836;6.376;2023-01-01T05:13:52;6.13;;;2.38;;
55455;SDS011;63021;52.836;6.376;2023-01-01T05:16:20;5.60;;;2.85;;
55455;SDS011;63021;52.836;6.376;2023-01-01T05:18:47;4.72;;;2.17;;
55455;SDS011;63021;52.836;6.376;2023-01-01T05:21:14;7.80;;;2.30;;
55455;SDS011;63021;52.836;6.376;2023-01-01T05:23:43;4.07;;;2.00;;
55455;SDS011;63021;52.836;6.376;2023-01-01T05:28:39;11.40;;;3.28;;
55455;SDS011;63021;52.836;6.376;2023-01-01T05:31:06;4.43;;;2.25;;
55455;SDS011;63021;52.836;6.376;2023-01-01T05:33:36;5.88;;;2.20;;
55455;SDS011;63021;52.836;6.376;2023-01-01T05:36:03;6.78;;;2.35;;
55455;SDS011;63021;52.836;6.376;2023-01-01T05:38:29;4.95;;;1.90;;
55455;SDS011;63021;52.836;6.376;2023-01-01T05:40:54;4.68;;;1.70;;
55455;SDS011;63021;52.836;6.376;2023-01-01T05:43:20;6.13;;;2.05;;
55455;SDS011;63021;52.836;6.376;2023-01-01T05:45:46;3.40;;;1.73;;
55455;SDS011;63021;52.836;6.376;2023-01-01T05:48:11;7.53;;;1.63;;
55455;SDS011;63021;52.836;6.376;2023-01-01T05:50:36;6.88;;;2.00;;
55455;SDS011;63021;52.836;6.376;2023-01-01T05:53:02;7.18;;;1.42;;
55455;SDS011;63021;52.836;6.376;2023-01-01T05:55:28;4.43;;;2.60;;
55455;SDS011;63021;52.836;6.376;2023-01-01T05:57:55;2.50;;;1.13;;
55455;SDS011;63021;52.836;6.376;2023-01-01T06:00:20;2.50;;;1.20;;
55455;SDS011;63021;52.836;6.376;2023-01-01T06:02:46;6.00;;;1.45;;
55455;SDS011;63021;52.836;6.376;2023-01-01T06:05:13;6.32;;;2.00;;
55455;SDS011;63021;52.836;6.376;2023-01-01T06:07:39;7.93;;;1.55;;
55455;SDS011;63021;52.836;6.376;2023-01-01T06:10:05;5.70;;;1.13;;
55455;SDS011;63021;52.836;6.376;2023-01-01T06:12:30;4.95;;;1.40;;
55455;SDS011;63021;52.836;6.376;2023-01-01T06:14:56;7.03;;;1.77;;
55455;SDS011;63021;52.836;6.376;2023-01-01T06:17:21;5.63;;;1.60;;
55455;SDS011;63021;52.836;6.376;2023-01-01T06:19:46;4.35;;;1.27;;
55455;SDS011;63021;52.836;6.376;2023-01-01T06:22:12;3.88;;;1.55;;
55455;SDS011;63021;52.836;6.376;2023-01-01T06:24:38;4.65;;;1.65;;
55455;SDS011;63021;52.836;6.376;2023-01-01T06:27:03;6.15;;;1.67;;
55455;SDS011;63021;52.836;6.376;2023-01-01T06:29:28;4.78;;;1.63;;
55455;SDS011;63021;52.836;6.376;2023-01-01T06:31:54;4.05;;;1.80;;
55455;SDS011;63021;52.836;6.376;2023-01-01T06:34:19;7.05;;;1.80;;
55455;SDS011;63021;52.836;6.376;2023-01-01T06:36:45;2.78;;;1.17;;
55455;SDS011;63021;52.836;6.376;2023-01-01T06:39:10;3.20;;;1.23;;
55455;SDS011;63021;52.836;6.376;2023-01-01T06:41:35;12.40;;;1.70;;
55455;SDS011;63021;52.836;6.376;2023-01-01T06:44:01;6.55;;;1.50;;
55455;SDS011;63021;52.836;6.376;2023-01-01T06:46:31;5.53;;;2.00;;
55455;SDS011;63021;52.836;6.376;2023-01-01T06:48:59;7.43;;;1.92;;
55455;SDS011;63021;52.836;6.376;2023-01-01T06:51:30;8.35;;;2.05;;
55455;SDS011;63021;52.836;6.376;2023-01-01T06:54:06;10.02;;;2.47;;
55455;SDS011;63021;52.836;6.376;2023-01-01T06:56:33;12.38;;;2.00;;
55455;SDS011;63021;52.836;6.376;2023-01-01T06:58:59;10.23;;;3.30;;
55455;SDS011;63021;52.836;6.376;2023-01-01T07:01:29;8.57;;;2.05;;
55455;SDS011;63021;52.836;6.376;2023-01-01T07:06:23;5.80;;;2.38;;
55455;SDS011;63021;52.836;6.376;2023-01-01T07:08:50;10.30;;;2.33;;
55455;SDS011;63021;52.836;6.376;2023-01-01T07:11:15;7.13;;;1.67;;
55455;SDS011;63021;52.836;6.376;2023-01-01T07:13:41;7.18;;;2.47;;
55455;SDS011;63021;52.836;6.376;2023-01-01T07:16:07;4.45;;;1.65;;
55455;SDS011;63021;52.836;6.376;2023-01-01T07:18:33;10.07;;;1.98;;
55455;SDS011;63021;52.836;6.376;2023-01-01T07:20:59;6.20;;;1.83;;
55455;SDS011;63021;52.836;6.376;2023-01-01T07:23:26;4.63;;;1.45;;
55455;SDS011;63021;52.836;6.376;2023-01-01T07:25:54;5.32;;;1.92;;
55455;SDS011;63021;52.836;6.376;2023-01-01T07:28:20;12.52;;;2.72;;
55455;SDS011;63021;52.836;6.376;2023-01-01T07:30:47;11.00;;;2.30;;
55455;SDS011;63021;52.836;6.376;2023-01-01T07:33:14;11.82;;;3.50;;
55455;SDS011;63021;52.836;6.376;2023-01-01T07:35:42;7.90;;;2.22;;
55455;SDS011;63021;52.836;6.376;2023-01-01T07:38:14;12.05;;;3.28;;
55455;SDS011;63021;52.836;6.376;2023-01-01T07:40:40;14.75;;;3.10;;
55455;SDS011;63021;52.836;6.376;2023-01-01T07:43:07;7.22;;;1.35;;
55455;SDS011;63021;52.836;6.376;2023-01-01T07:45:32;9.10;;;2.53;;
55455;SDS011;63021;52.836;6.376;2023-01-01T07:47:59;10.10;;;2.80;;
55455;SDS011;63021;52.836;6.376;2023-01-01T07:50:26;10.25;;;2.83;;
55455;SDS011;63021;52.836;6.376;2023-01-01T07:52:53;7.57;;;2.80;;
55455;SDS011;63021;52.836;6.376;2023-01-01T07:55:19;9.82;;;2.67;;
55455;SDS011;63021;52.836;6.376;2023-01-01T07:57:46;6.28;;;2.10;;
55455;SDS011;63021;52.836;6.376;2023-01-01T08:00:13;12.00;;;2.50;;
55455;SDS011;63021;52.836;6.376;2023-01-01T08:02:41;7.68;;;2.60;;
55455;SDS011;63021;52.836;6.376;2023-01-01T08:05:07;7.32;;;1.83;;
55455;SDS011;63021;52.836;6.376;2023-01-01T08:07:33;13.00;;;2.35;;
55455;SDS011;63021;52.836;6.376;2023-01-01T08:09:58;9.60;;;2.28;;
55455;SDS011;63021;52.836;6.376;2023-01-01T08:12:25;11.98;;;3.55;;
55455;SDS011;63021;52.836;6.376;2023-01-01T08:14:50;14.38;;;3.05;;
55455;SDS011;63021;52.836;6.376;2023-01-01T08:17:16;9.40;;;2.00;;
55455;SDS011;63021;52.836;6.376;2023-01-01T08:19:41;10.45;;;2.20;;
55455;SDS011;63021;52.836;6.376;2023-01-01T08:22:08;10.98;;;2.67;;
55455;SDS011;63021;52.836;6.376;2023-01-01T08:24:34;13.70;;;2.58;;
55455;SDS011;63021;52.836;6.376;2023-01-01T08:26:59;11.75;;;2.22;;
55455;SDS011;63021;52.836;6.376;2023-01-01T08:29:24;12.57;;;3.00;;
55455;SDS011;63021;52.836;6.376;2023-01-01T08:31:50;8.35;;;2.85;;
55455;SDS011;63021;52.836;6.376;2023-01-01T08:34:15;14.90;;;2.88;;
55455;SDS011;63021;52.836;6.376;2023-01-01T08:36:40;7.68;;;1.80;;
55455;SDS011;63021;52.836;6.376;2023-01-01T08:39:06;12.50;;;2.88;;
55455;SDS011;63021;52.836;6.376;2023-01-01T08:41:32;8.18;;;1.75;;
55455;SDS011;63021;52.836;6.376;2023-01-01T08:43:58;10.60;;;2.83;;
55455;SDS011;63021;52.836;6.376;2023-01-01T08:46:23;6.18;;;2.20;;
55455;SDS011;63021;52.836;6.376;2023-01-01T08:48:49;5.90;;;2.30;;
55455;SDS011;63021;52.836;6.376;2023-01-01T08:51:14;8.93;;;2.00;;
55455;SDS011;63021;52.836;6.376;2023-01-01T08:53:40;7.82;;;2.35;;
55455;SDS011;63021;52.836;6.376;2023-01-01T08:56:06;17.50;;;2.83;;
55455;SDS011;63021;52.836;6.376;2023-01-01T08:58:35;6.80;;;1.85;;
55455;SDS011;63021;52.836;6.376;2023-01-01T09:01:01;13.05;;;2.45;;
55455;SDS011;63021;52.836;6.376;2023-01-01T09:03:27;12.70;;;3.50;;
55455;SDS011;63021;52.836;6.376;2023-01-01T09:05:53;13.63;;;3.28;;
55455;SDS011;63021;52.836;6.376;2023-01-01T09:08:19;8.48;;;2.55;;
55455;SDS011;63021;52.836;6.376;2023-01-01T09:10:45;12.48;;;1.88;;
55455;SDS011;63021;52.836;6.376;2023-01-01T09:13:12;10.23;;;2.63;;
55455;SDS011;63021;52.836;6.376;2023-01-01T09:15:39;9.95;;;2.75;;
55455;SDS011;63021;52.836;6.376;2023-01-01T09:18:07;6.55;;;1.67;;
55455;SDS011;63021;52.836;6.376;2023-01-01T09:20:33;13.27;;;2.67;;
55455;SDS011;63021;52.836;6.376;2023-01-01T09:22:58;8.63;;;2.15;;
55455;SDS011;63021;52.836;6.376;2023-01-01T09:25:24;13.77;;;2.85;;
55455;SDS011;63021;52.836;6.376;2023-01-01T09:27:55;15.70;;;2.58;;
55455;SDS011;63021;52.836;6.376;2023-01-01T09:30:21;10.98;;;2.83;;
55455;SDS011;63021;52.836;6.376;2023-01-01T09:32:47;14.48;;;4.15;;
55455;SDS011;63021;52.836;6.376;2023-01-01T09:35:12;10.90;;;2.33;;
55455;SDS011;63021;52.836;6.376;2023-01-01T09:37:37;12.75;;;2.20;;
55455;SDS011;63021;52.836;6.376;2023-01-01T09:40:03;9.40;;;2.95;;
55455;SDS011;63021;52.836;6.376;2023-01-01T09:42:38;9.35;;;1.95;;
55455;SDS011;63021;52.836;6.376;2023-01-01T09:45:28;11.80;;;2.70;;
55455;SDS011;63021;52.836;6.376;2023-01-01T09:47:59;12.80;;;3.30;;
55455;SDS011;63021;52.836;6.376;2023-01-01T09:50:40;12.93;;;2.20;;
55455;SDS011;63021;52.836;6.376;2023-01-01T09:53:12;9.20;;;1.83;;
55455;SDS011;63021;52.836;6.376;2023-01-01T09:55:50;21.63;;;3.10;;
55455;SDS011;63021;52.836;6.376;2023-01-01T09:58:20;12.93;;;2.10;;
55455;SDS011;63021;52.836;6.376;2023-01-01T10:00:51;8.52;;;1.90;;
55455;SDS011;63021;52.836;6.376;2023-01-01T10:03:32;6.13;;;2.00;;
55455;SDS011;63021;52.836;6.376;2023-01-01T10:06:18;12.60;;;2.45;;
55455;SDS011;63021;52.836;6.376;2023-01-01T10:13:48;8.30;;;1.73;;
55455;SDS011;63021;52.836;6.376;2023-01-01T10:19:00;10.25;;;1.77;;
55455;SDS011;63021;52.836;6.376;2023-01-01T10:21:38;8.05;;;2.10;;
55455;SDS011;63021;52.836;6.376;2023-01-01T10:26:57;6.88;;;1.23;;
55455;SDS011;63021;52.836;6.376;2023-01-01T10:32:19;7.22;;;1.73;;
55455;SDS011;63021;52.836;6.376;2023-01-01T10:35:15;8.73;;;1.80;;
55455;SDS011;63021;52.836;6.376;2023-01-01T10:37:43;10.68;;;2.50;;
55455;SDS011;63021;52.836;6.376;2023-01-01T10:40:27;9.77;;;2.38;;
55455;SDS011;63021;52.836;6.376;2023-01-01T10:42:54;8.23;;;2.05;;
55455;SDS011;63021;52.836;6.376;2023-01-01T10:45:39;8.68;;;1.80;;
55455;SDS011;63021;52.836;6.376;2023-01-01T10:48:21;9.82;;;2.20;;
55455;SDS011;63021;52.836;6.376;2023-01-01T10:56:17;10.50;;;2.03;;
55455;SDS011;63021;52.836;6.376;2023-01-01T10:58:48;16.50;;;2.70;;
55455;SDS011;63021;52.836;6.376;2023-01-01T11:06:32;17.25;;;2.22;;
55455;SDS011;63021;52.836;6.376;2023-01-01T11:09:00;12.40;;;2.53;;
55455;SDS011;63021;52.836;6.376;2023-01-01T11:12:00;8.10;;;2.30;;
55455;SDS011;63021;52.836;6.376;2023-01-01T11:17:07;14.88;;;2.55;;
55455;SDS011;63021;52.836;6.376;2023-01-01T11:19:34;12.13;;;2.15;;
55455;SDS011;63021;52.836;6.376;2023-01-01T11:22:02;13.98;;;2.28;;
55455;SDS011;63021;52.836;6.376;2023-01-01T11:24:30;14.02;;;3.50;;
55455;SDS011;63021;52.836;6.376;2023-01-01T11:29:44;12.95;;;2.20;;
55455;SDS011;63021;52.836;6.376;2023-01-01T11:32:11;13.10;;;2.47;;
55455;SDS011;63021;52.836;6.376;2023-01-01T11:34:59;13.80;;;2.50;;
55455;SDS011;63021;52.836;6.376;2023-01-01T11:37:27;13.13;;;2.03;;
55455;SDS011;63021;52.836;6.376;2023-01-01T11:39:58;10.88;;;2.42;;
55455;SDS011;63021;52.836;6.376;2023-01-01T11:42:26;12.02;;;2.67;;
55455;SDS011;63021;52.836;6.376;2023-01-01T11:47:28;9.13;;;2.15;;
55455;SDS011;63021;52.836;6.376;2023-01-01T11:50:10;17.10;;;2.33;;
55455;SDS011;63021;52.836;6.376;2023-01-01T11:52:43;13.43;;;2.70;;
55455;SDS011;63021;52.836;6.376;2023-01-01T11:57:38;14.88;;;3.03;;
55455;SDS011;63021;52.836;6.376;2023-01-01T12:00:11;13.30;;;2.75;;
55455;SDS011;63021;52.836;6.376;2023-01-01T12:02:41;13.07;;;3.88;;
55455;SDS011;63021;52.836;6.376;2023-01-01T12:05:36;8.18;;;1.88;;
55455;SDS011;63021;52.836;6.376;2023-01-01T12:08:09;14.23;;;2.92;;
55455;SDS011;63021;52.836;6.376;2023-01-01T12:10:44;12.57;;;2.72;;
55455;SDS011;63021;52.836;6.376;2023-01-01T12:13:21;13.05;;;2.53;;
55455;SDS011;63021;52.836;6.376;2023-01-01T12:18:41;9.80;;;2.70;;
55455;SDS011;63021;52.836;6.376;2023-01-01T12:23:42;14.63;;;2.00;;
55455;SDS011;63021;52.836;6.376;2023-01-01T12:26:11;8.35;;;2.17;;
55455;SDS011;63021;52.836;6.376;2023-01-01T12:34:33;13.50;;;2.95;;
55455;SDS011;63021;52.836;6.376;2023-01-01T12:37:10;10.27;;;2.13;;
55455;SDS011;63021;52.836;6.376;2023-01-01T12:42:21;15.70;;;2.33;;
55455;SDS011;63021;52.836;6.376;2023-01-01T12:45:16;9.48;;;2.38;;
55455;SDS011;63021;52.836;6.376;2023-01-01T12:47:55;7.05;;;2.38;;
55455;SDS011;63021;52.836;6.376;2023-01-01T12:56:02;16.98;;;3.30;;
55455;SDS011;63021;52.836;6.376;2023-01-01T12:58:39;13.10;;;3.95;;
55455;SDS011;63021;52.836;6.376;2023-01-01T13:03:53;7.85;;;2.08;;
55455;SDS011;63021;52.836;6.376;2023-01-01T13:06:42;14.82;;;2.40;;
55455;SDS011;63021;52.836;6.376;2023-01-01T13:09:18;10.48;;;2.60;;
55455;SDS011;63021;52.836;6.376;2023-01-01T13:11:47;13.13;;;2.88;;
55455;SDS011;63021;52.836;6.376;2023-01-01T13:14:15;13.13;;;2.42;;
55455;SDS011;63021;52.836;6.376;2023-01-01T13:16:41;14.88;;;3.85;;
55455;SDS011;63021;52.836;6.376;2023-01-01T13:19:24;16.75;;;3.47;;
55455;SDS011;63021;52.836;6.376;2023-01-01T13:38:48;12.10;;;2.50;;
55455;SDS011;63021;52.836;6.376;2023-01-01T13:43:52;16.33;;;2.95;;
55455;SDS011;63021;52.836;6.376;2023-01-01T13:46:18;10.82;;;2.72;;
55455;SDS011;63021;52.836;6.376;2023-01-01T13:57:29;12.20;;;2.80;;
55455;SDS011;63021;52.836;6.376;2023-01-01T14:05:35;14.73;;;3.15;;
55455;SDS011;63021;52.836;6.376;2023-01-01T14:08:23;12.45;;;3.30;;
55455;SDS011;63021;52.836;6.376;2023-01-01T14:10:57;13.00;;;3.30;;
55455;SDS011;63021;52.836;6.376;2023-01-01T14:13:37;8.88;;;3.10;;
55455;SDS011;63021;52.836;6.376;2023-01-01T14:16:05;11.02;;;2.70;;
55455;SDS011;63021;52.836;6.376;2023-01-01T14:18:54;17.98;;;3.50;;
55455;SDS011;63021;52.836;6.376;2023-01-01T14:21:23;13.40;;;4.57;;
55455;SDS011;63021;52.836;6.376;2023-01-01T14:23:58;15.32;;;3.38;;
55455;SDS011;63021;52.836;6.376;2023-01-01T14:26:26;6.97;;;3.08;;
55455;SDS011;63021;52.836;6.376;2023-01-01T14:28:58;12.05;;;4.15;;
55455;SDS011;63021;52.836;6.376;2023-01-01T14:31:27;8.20;;;3.97;;
55455;SDS011;63021;52.836;6.376;2023-01-01T14:33:55;22.65;;;9.02;;
55455;SDS011;63021;52.836;6.376;2023-01-01T14:38:49;15.93;;;4.75;;
55455;SDS011;63021;52.836;6.376;2023-01-01T14:41:18;20.63;;;4.50;;
55455;SDS011;63021;52.836;6.376;2023-01-01T14:44:03;14.65;;;4.20;;
55455;SDS011;63021;52.836;6.376;2023-01-01T14:46:31;16.42;;;4.32;;
55455;SDS011;63021;52.836;6.376;2023-01-01T14:48:59;19.20;;;3.60;;
55455;SDS011;63021;52.836;6.376;2023-01-01T14:51:28;9.23;;;2.70;;
55455;SDS011;63021;52.836;6.376;2023-01-01T14:53:56;14.57;;;4.00;;
55455;SDS011;63021;52.836;6.376;2023-01-01T14:56:24;19.33;;;5.15;;
55455;SDS011;63021;52.836;6.376;2023-01-01T14:58:52;21.70;;;3.65;;
55455;SDS011;63021;52.836;6.376;2023-01-01T15:01:25;14.25;;;6.63;;
55455;SDS011;63021;52.836;6.376;2023-01-01T15:04:01;17.02;;;5.32;;
55455;SDS011;63021;52.836;6.376;2023-01-01T15:06:29;12.52;;;3.30;;
55455;SDS011;63021;52.836;6.376;2023-01-01T15:08:56;14.63;;;4.57;;
55455;SDS011;63021;52.836;6.376;2023-01-01T15:11:21;13.32;;;3.28;;
55455;SDS011;63021;52.836;6.376;2023-01-01T15:13:51;9.75;;;3.40;;
55455;SDS011;63021;52.836;6.376;2023-01-01T15:16:18;15.63;;;3.95;;
55455;SDS011;63021;52.836;6.376;2023-01-01T15:18:44;12.98;;;3.03;;
55455;SDS011;63021;52.836;6.376;2023-01-01T15:21:15;19.83;;;4.25;;
55455;SDS011;63021;52.836;6.376;2023-01-01T15:26:40;16.23;;;3.97;;
55455;SDS011;63021;52.836;6.376;2023-01-01T15:29:09;15.20;;;4.90;;
55455;SDS011;63021;52.836;6.376;2023-01-01T15:31:47;15.70;;;4.10;;
55455;SDS011;63021;52.836;6.376;2023-01-01T15:34:24;20.20;;;4.28;;
55455;SDS011;63021;52.836;6.376;2023-01-01T15:36:52;18.90;;;3.90;;
55455;SDS011;63021;52.836;6.376;2023-01-01T15:39:20;12.48;;;4.03;;
55455;SDS011;63021;52.836;6.376;2023-01-01T15:41:49;9.05;;;3.40;;
55455;SDS011;63021;52.836;6.376;2023-01-01T15:46:44;12.75;;;3.92;;
55455;SDS011;63021;52.836;6.376;2023-01-01T15:49:20;12.95;;;3.25;;
55455;SDS011;63021;52.836;6.376;2023-01-01T15:51:48;22.55;;;4.15;;
55455;SDS011;63021;52.836;6.376;2023-01-01T15:54:14;13.50;;;3.22;;
55455;SDS011;63021;52.836;6.376;2023-01-01T15:56:41;15.73;;;3.17;;
55455;SDS011;63021;52.836;6.376;2023-01-01T16:04:56;21.25;;;5.85;;
55455;SDS011;63021;52.836;6.376;2023-01-01T16:07:23;21.77;;;7.25;;
55455;SDS011;63021;52.836;6.376;2023-01-01T16:09:50;20.65;;;4.63;;
55455;SDS011;63021;52.836;6.376;2023-01-01T16:12:16;24.35;;;4.95;;
55455;SDS011;63021;52.836;6.376;2023-01-01T16:14:42;13.93;;;3.40;;
55455;SDS011;63021;52.836;6.376;2023-01-01T16:17:10;20.35;;;4.60;;
55455;SDS011;63021;52.836;6.376;2023-01-01T16:19:38;19.60;;;5.38;;
55455;SDS011;63021;52.836;6.376;2023-01-01T16:22:04;22.27;;;6.22;;
55455;SDS011;63021;52.836;6.376;2023-01-01T16:24:30;19.92;;;5.60;;
55455;SDS011;63021;52.836;6.376;2023-01-01T16:26:59;22.02;;;6.00;;
55455;SDS011;63021;52.836;6.376;2023-01-01T16:29:24;20.10;;;7.07;;
55455;SDS011;63021;52.836;6.376;2023-01-01T16:31:50;18.08;;;5.25;;
55455;SDS011;63021;52.836;6.376;2023-01-01T16:34:16;14.20;;;4.25;;
55455;SDS011;63021;52.836;6.376;2023-01-01T16:36:42;16.17;;;4.00;;
55455;SDS011;63021;52.836;6.376;2023-01-01T16:39:08;17.73;;;5.38;;
55455;SDS011;63021;52.836;6.376;2023-01-01T16:41:33;13.27;;;4.15;;
55455;SDS011;63021;52.836;6.376;2023-01-01T16:43:58;22.17;;;4.60;;
55455;SDS011;63021;52.836;6.376;2023-01-01T16:46:24;20.02;;;5.30;;
55455;SDS011;63021;52.836;6.376;2023-01-01T16:48:51;14.52;;;3.92;;
55455;SDS011;63021;52.836;6.376;2023-01-01T16:51:18;17.15;;;4.07;;
55455;SDS011;63021;52.836;6.376;2023-01-01T16:53:47;17.65;;;4.32;;
55455;SDS011;63021;52.836;6.376;2023-01-01T16:56:12;18.15;;;4.20;;
55455;SDS011;63021;52.836;6.376;2023-01-01T16:58:39;17.17;;;3.72;;
55455;SDS011;63021;52.836;6.376;2023-01-01T17:01:04;19.20;;;4.93;;
55455;SDS011;63021;52.836;6.376;2023-01-01T17:03:30;11.13;;;3.88;;
55455;SDS011;63021;52.836;6.376;2023-01-01T17:05:55;17.73;;;3.97;;
55455;SDS011;63021;52.836;6.376;2023-01-01T17:08:21;14.88;;;4.50;;